sensor_id;sensor_type;location;lat;lon;timestamp;pressure;altitude;pressure_sealevel;temperature;humidity
82222;BME280;71818;52.352;10.912;2023-08-07T00:00:28;99206.56;;;14.54;85.22
82222;BME280;71818;52.352;10.912;2023-08-07T00:02:53;99202.41;;;14.60;85.10
82222;BME280;71818;52.352;10.912;2023-08-07T00:05:19;99199.06;;;14.58;85.41
82222;BME280;71818;52.352;10.912;2023-08-07T00:07:44;99196.72;;;14.55;85.44
82222;BME280;71818;52.352;10.912;2023-08-07T00:10:10;99203.06;;;14.54;86.12
82222;BME280;71818;52.352;10.912;2023-08-07T00:12:35;99203.56;;;14.49;86.11
82222;BME280;71818;52.352;10.912;2023-08-07T00:15:02;99202.72;;;14.49;86.20
82222;BME280;71818;52.352;10.912;2023-08-07T00:17:28;99208.56;;;14.52;86.01
82222;BME280;71818;52.352;10.912;2023-08-07T00:19:54;99209.06;;;14.48;86.24
82222;BME280;71818;52.352;10.912;2023-08-07T00:22:19;99213.56;;;14.47;86.62
82222;BME280;71818;52.352;10.912;2023-08-07T00:24:45;99211.91;;;14.46;86.76
82222;BME280;71818;52.352;10.912;2023-08-07T00:27:10;99211.75;;;14.48;86.54
82222;BME280;71818;52.352;10.912;2023-08-07T00:29:37;99202.06;;;14.47;86.87
82222;BME280;71818;52.352;10.912;2023-08-07T00:32:03;99204.91;;;14.45;86.79
82222;BME280;71818;52.352;10.912;2023-08-07T00:34:29;99205.75;;;14.46;86.85
82222;BME280;71818;52.352;10.912;2023-08-07T00:36:54;99206.34;;;14.40;86.99
82222;BME280;71818;52.352;10.912;2023-08-07T00:39:20;99199.50;;;14.37;87.38
82222;BME280;71818;52.352;10.912;2023-08-07T00:41:45;99208.34;;;14.38;87.44
82222;BME280;71818;52.352;10.912;2023-08-07T00:44:10;99203.50;;;14.33;87.66
82222;BME280;71818;52.352;10.912;2023-08-07T00:46:36;99208.84;;;14.33;87.59
82222;BME280;71818;52.352;10.912;2023-08-07T00:49:04;99202.69;;;14.24;88.01
82222;BME280;71818;52.352;10.912;2023-08-07T00:51:30;99208.31;;;14.21;88.19
82222;BME280;71818;52.352;10.912;2023-08-07T00:53:56;99203.31;;;14.18;88.36
82222;BME280;71818;52.352;10.912;2023-08-07T00:56:22;99204.50;;;14.16;88.48
82222;BME280;71818;52.352;10.912;2023-08-07T00:58:49;99202.66;;;14.16;88.23
82222;BME280;71818;52.352;10.912;2023-08-07T01:01:15;99196.44;;;14.07;88.61
82222;BME280;71818;52.352;10.912;2023-08-07T01:03:41;99203.28;;;14.02;88.73
82222;BME280;71818;52.352;10.912;2023-08-07T01:06:06;99210.13;;;14.04;88.83
82222;BME280;71818;52.352;10.912;2023-08-07T01:08:31;99204.44;;;13.99;88.73
82222;BME280;71818;52.352;10.912;2023-08-07T01:11:22;99212.28;;;14.01;89.02
82222;BME280;71818;52.352;10.912;2023-08-07T01:14:13;99204.78;;;14.04;88.91
82222;BME280;71818;52.352;10.912;2023-08-07T01:17:00;99203.16;;;14.12;88.99
82222;BME280;71818;52.352;10.912;2023-08-07T01:19:27;99205.31;;;14.16;88.93
82222;BME280;71818;52.352;10.912;2023-08-07T01:22:06;99202.31;;;14.19;88.69
82222;BME280;71818;52.352;10.912;2023-08-07T01:24:32;99197.66;;;14.21;88.42
82222;BME280;71818;52.352;10.912;2023-08-07T01:27:24;99200.47;;;14.20;88.40
82222;BME280;71818;52.352;10.912;2023-08-07T01:30:26;99192.47;;;14.20;88.29
82222;BME280;71818;52.352;10.912;2023-08-07T01:32:56;99185.97;;;14.14;88.42
82222;BME280;71818;52.352;10.912;2023-08-07T01:35:27;99186.59;;;14.08;88.45
82222;BME280;71818;52.352;10.912;2023-08-07T01:37:56;99189.28;;;14.00;88.55
82222;BME280;71818;52.352;10.912;2023-08-07T01:40:22;99180.72;;;13.88;88.74
82222;BME280;71818;52.352;10.912;2023-08-07T01:42:48;99180.06;;;13.86;88.97
82222;BME280;71818;52.352;10.912;2023-08-07T01:45:21;99184.69;;;13.76;89.44
82222;BME280;71818;52.352;10.912;2023-08-07T01:47:46;99175.84;;;13.67;89.88
82222;BME280;71818;52.352;10.912;2023-08-07T01:50:12;99177.16;;;13.63;90.07
82222;BME280;71818;52.352;10.912;2023-08-07T01:52:37;99182.13;;;13.58;90.04
82222;BME280;71818;52.352;10.912;2023-08-07T01:55:02;99182.13;;;13.58;90.01
82222;BME280;71818;52.352;10.912;2023-08-07T01:57:28;99183.44;;;13.54;89.76
82222;BME280;71818;52.352;10.912;2023-08-07T01:59:53;99181.78;;;13.53;89.46
82222;BME280;71818;52.352;10.912;2023-08-07T02:02:18;99183.78;;;13.51;89.61
82222;BME280;71818;52.352;10.912;2023-08-07T02:04:44;99182.78;;;13.52;89.80
82222;BME280;71818;52.352;10.912;2023-08-07T02:07:09;99179.59;;;13.49;89.54
82222;BME280;71818;52.352;10.912;2023-08-07T02:09:35;99178.91;;;13.46;89.58
82222;BME280;71818;52.352;10.912;2023-08-07T02:12:00;99179.06;;;13.45;89.87
82222;BME280;71818;52.352;10.912;2023-08-07T02:14:26;99181.88;;;13.43;89.90
82222;BME280;71818;52.352;10.912;2023-08-07T02:16:52;99184.41;;;13.45;90.04
82222;BME280;71818;52.352;10.912;2023-08-07T02:19:17;99182.72;;;13.44;90.05
82222;BME280;71818;52.352;10.912;2023-08-07T02:21:42;99182.88;;;13.42;90.42
82222;BME280;71818;52.352;10.912;2023-08-07T02:24:08;99189.72;;;13.45;90.76
82222;BME280;71818;52.352;10.912;2023-08-07T02:26:33;99191.72;;;13.43;90.75
82222;BME280;71818;52.352;10.912;2023-08-07T02:28:58;99191.22;;;13.48;90.96
82222;BME280;71818;52.352;10.912;2023-08-07T02:31:24;99184.28;;;13.55;90.82
82222;BME280;71818;52.352;10.912;2023-08-07T02:33:49;99196.63;;;13.56;90.99
82222;BME280;71818;52.352;10.912;2023-08-07T02:36:14;99197.13;;;13.59;91.09
82222;BME280;71818;52.352;10.912;2023-08-07T02:38:40;99200.47;;;13.61;90.88
82222;BME280;71818;52.352;10.912;2023-08-07T02:41:05;99201.28;;;13.62;91.05
82222;BME280;71818;52.352;10.912;2023-08-07T02:43:30;99207.34;;;13.64;90.92
82222;BME280;71818;52.352;10.912;2023-08-07T02:45:58;99204.19;;;13.68;90.75
82222;BME280;71818;52.352;10.912;2023-08-07T02:48:23;99201.19;;;13.71;90.81
82222;BME280;71818;52.352;10.912;2023-08-07T02:50:49;99196.84;;;13.70;90.42
82222;BME280;71818;52.352;10.912;2023-08-07T02:53:16;99198.84;;;13.76;90.70
82222;BME280;71818;52.352;10.912;2023-08-07T02:55:43;99205.72;;;13.79;90.70
82222;BME280;71818;52.352;10.912;2023-08-07T02:58:09;99207.06;;;13.83;90.71
82222;BME280;71818;52.352;10.912;2023-08-07T03:00:34;99210.41;;;13.85;90.58
82222;BME280;71818;52.352;10.912;2023-08-07T03:03:00;99202.91;;;13.89;90.71
82222;BME280;71818;52.352;10.912;2023-08-07T03:05:25;99212.25;;;13.93;90.89
82222;BME280;71818;52.352;10.912;2023-08-07T03:07:51;99217.28;;;14.04;90.77
82222;BME280;71818;52.352;10.912;2023-08-07T03:10:16;99210.78;;;13.98;90.65
82222;BME280;71818;52.352;10.912;2023-08-07T03:12:41;99209.94;;;13.98;90.74
82222;BME280;71818;52.352;10.912;2023-08-07T03:15:07;99214.47;;;13.97;91.12
82222;BME280;71818;52.352;10.912;2023-08-07T03:17:33;99213.94;;;13.94;91.43
82222;BME280;71818;52.352;10.912;2023-08-07T03:19:58;99220.78;;;13.96;91.56
82222;BME280;71818;52.352;10.912;2023-08-07T03:22:24;99219.78;;;13.97;91.26
82222;BME280;71818;52.352;10.912;2023-08-07T03:24:49;99216.28;;;13.97;91.54
82222;BME280;71818;52.352;10.912;2023-08-07T03:27:15;99226.63;;;14.00;91.72
82222;BME280;71818;52.352;10.912;2023-08-07T03:29:40;99216.78;;;14.00;91.38
82222;BME280;71818;52.352;10.912;2023-08-07T03:32:06;99223.47;;;13.96;91.25
82222;BME280;71818;52.352;10.912;2023-08-07T03:34:31;99223.28;;;13.98;91.07
82222;BME280;71818;52.352;10.912;2023-08-07T03:36:56;99226.63;;;14.00;90.90
82222;BME280;71818;52.352;10.912;2023-08-07T03:39:24;99229.31;;;14.00;91.13
82222;BME280;71818;52.352;10.912;2023-08-07T03:41:49;99237.81;;;14.03;90.87
82222;BME280;71818;52.352;10.912;2023-08-07T03:44:15;99238.81;;;14.02;90.46
82222;BME280;71818;52.352;10.912;2023-08-07T03:46:40;99239.81;;;14.01;90.81
82222;BME280;71818;52.352;10.912;2023-08-07T03:49:05;99233.13;;;13.97;90.83
82222;BME280;71818;52.352;10.912;2023-08-07T03:51:31;99241.13;;;13.97;90.97
82222;BME280;71818;52.352;10.912;2023-08-07T03:53:57;99228.63;;;13.98;90.85
82222;BME280;71818;52.352;10.912;2023-08-07T03:56:22;99233.97;;;13.98;90.78
82222;BME280;71818;52.352;10.912;2023-08-07T03:58:48;99234.63;;;14.00;91.21
82222;BME280;71818;52.352;10.912;2023-08-07T04:01:15;99236.63;;;13.98;90.55
82222;BME280;71818;52.352;10.912;2023-08-07T04:03:40;99238.63;;;13.96;90.65
82222;BME280;71818;52.352;10.912;2023-08-07T04:06:06;99235.13;;;13.95;90.67
82222;BME280;71818;52.352;10.912;2023-08-07T04:08:31;99242.97;;;13.97;90.67
82222;BME280;71818;52.352;10.912;2023-08-07T04:11:03;99242.97;;;13.97;90.72
82222;BME280;71818;52.352;10.912;2023-08-07T04:13:30;99250.81;;;13.98;90.45
82222;BME280;71818;52.352;10.912;2023-08-07T04:15:56;99248.81;;;14.00;90.28
82222;BME280;71818;52.352;10.912;2023-08-07T04:18:22;99253.31;;;14.00;90.42
82222;BME280;71818;52.352;10.912;2023-08-07T04:20:52;99253.16;;;14.01;90.39
82222;BME280;71818;52.352;10.912;2023-08-07T04:23:18;99250.00;;;14.06;90.24
82222;BME280;71818;52.352;10.912;2023-08-07T04:25:43;99247.47;;;13.96;90.25
82222;BME280;71818;52.352;10.912;2023-08-07T04:28:08;99255.28;;;13.90;90.87
82222;BME280;71818;52.352;10.912;2023-08-07T04:30:34;99252.09;;;13.86;90.88
82222;BME280;71818;52.352;10.912;2023-08-07T04:32:59;99258.94;;;13.81;91.14
82222;BME280;71818;52.352;10.912;2023-08-07T04:35:24;99254.09;;;13.84;91.15
82222;BME280;71818;52.352;10.912;2023-08-07T04:37:50;99268.28;;;13.85;91.20
82222;BME280;71818;52.352;10.912;2023-08-07T04:40:15;99268.09;;;13.86;91.29
82222;BME280;71818;52.352;10.912;2023-08-07T04:42:41;99263.78;;;13.85;91.11
82222;BME280;71818;52.352;10.912;2023-08-07T04:45:06;99264.59;;;13.86;91.04
82222;BME280;71818;52.352;10.912;2023-08-07T04:47:32;99274.94;;;13.89;91.02
82222;BME280;71818;52.352;10.912;2023-08-07T04:49:57;99270.25;;;13.83;90.84
82222;BME280;71818;52.352;10.912;2023-08-07T04:52:22;99280.09;;;13.82;91.01
82222;BME280;71818;52.352;10.912;2023-08-07T04:54:48;99275.22;;;13.77;90.89
82222;BME280;71818;52.352;10.912;2023-08-07T04:57:13;99286.44;;;13.81;90.76
82222;BME280;71818;52.352;10.912;2023-08-07T04:59:38;99282.94;;;13.81;90.92
82222;BME280;71818;52.352;10.912;2023-08-07T05:02:04;99292.59;;;13.82;90.60
82222;BME280;71818;52.352;10.912;2023-08-07T05:04:29;99288.09;;;13.82;90.59
82222;BME280;71818;52.352;10.912;2023-08-07T05:06:55;99293.44;;;13.82;90.21
82222;BME280;71818;52.352;10.912;2023-08-07T05:09:20;99289.44;;;13.86;90.20
82222;BME280;71818;52.352;10.912;2023-08-07T05:11:45;99294.97;;;13.93;89.90
82222;BME280;71818;52.352;10.912;2023-08-07T05:14:11;99302.00;;;13.94;89.65
82222;BME280;71818;52.352;10.912;2023-08-07T05:16:36;99302.63;;;13.88;89.82
82222;BME280;71818;52.352;10.912;2023-08-07T05:19:02;99298.13;;;13.88;90.18
82222;BME280;71818;52.352;10.912;2023-08-07T05:21:27;99296.13;;;13.82;89.82
82222;BME280;71818;52.352;10.912;2023-08-07T05:23:52;99300.47;;;13.91;90.28
82222;BME280;71818;52.352;10.912;2023-08-07T05:26:20;99307.78;;;13.81;90.62
82222;BME280;71818;52.352;10.912;2023-08-07T05:28:46;99310.75;;;13.78;91.14
82222;BME280;71818;52.352;10.912;2023-08-07T05:31:11;99304.44;;;13.79;91.33
82222;BME280;71818;52.352;10.912;2023-08-07T05:33:37;99295.94;;;13.84;91.69
82222;BME280;71818;52.352;10.912;2023-08-07T05:36:02;99296.84;;;14.00;91.49
82222;BME280;71818;52.352;10.912;2023-08-07T05:38:27;99298.97;;;13.89;91.44
82222;BME280;71818;52.352;10.912;2023-08-07T05:40:53;99292.88;;;14.04;91.71
82222;BME280;71818;52.352;10.912;2023-08-07T05:43:18;99292.63;;;13.90;91.47
82222;BME280;71818;52.352;10.912;2023-08-07T05:45:44;99300.81;;;13.88;91.75
82222;BME280;71818;52.352;10.912;2023-08-07T05:48:11;99297.72;;;13.75;91.55
82222;BME280;71818;52.352;10.912;2023-08-07T05:50:37;99304.06;;;13.74;91.95
82222;BME280;71818;52.352;10.912;2023-08-07T05:53:02;99296.38;;;13.71;92.41
82222;BME280;71818;52.352;10.912;2023-08-07T05:55:28;99297.53;;;13.68;92.80
82222;BME280;71818;52.352;10.912;2023-08-07T05:57:53;99304.22;;;13.72;93.24
82222;BME280;71818;52.352;10.912;2023-08-07T06:00:19;99295.22;;;13.73;93.27
82222;BME280;71818;52.352;10.912;2023-08-07T06:02:45;99289.72;;;13.75;93.26
82222;BME280;71818;52.352;10.912;2023-08-07T06:05:10;99300.13;;;13.86;93.19
82222;BME280;71818;52.352;10.912;2023-08-07T06:07:39;99291.78;;;13.89;93.02
82222;BME280;71818;52.352;10.912;2023-08-07T06:10:05;99290.28;;;13.87;92.94
82222;BME280;71818;52.352;10.912;2023-08-07T06:12:31;99303.94;;;13.84;93.10
82222;BME280;71818;52.352;10.912;2023-08-07T06:14:56;99296.19;;;14.06;92.93
82222;BME280;71818;52.352;10.912;2023-08-07T06:17:22;99317.56;;;14.06;93.12
82222;BME280;71818;52.352;10.912;2023-08-07T06:19:47;99322.91;;;14.06;93.15
82222;BME280;71818;52.352;10.912;2023-08-07T06:22:12;99314.44;;;14.11;93.44
82222;BME280;71818;52.352;10.912;2023-08-07T06:24:38;99319.72;;;14.03;93.05
82222;BME280;71818;52.352;10.912;2023-08-07T06:27:03;99316.88;;;13.96;93.26
82222;BME280;71818;52.352;10.912;2023-08-07T06:29:29;99327.84;;;13.93;93.45
82222;BME280;71818;52.352;10.912;2023-08-07T06:31:54;99327.00;;;13.93;93.53
82222;BME280;71818;52.352;10.912;2023-08-07T06:34:19;99331.22;;;13.95;93.66
82222;BME280;71818;52.352;10.912;2023-08-07T06:36:45;99333.88;;;13.95;93.16
82222;BME280;71818;52.352;10.912;2023-08-07T06:39:10;99330.00;;;13.90;92.33
82222;BME280;71818;52.352;10.912;2023-08-07T06:41:37;99330.81;;;13.90;92.22
82222;BME280;71818;52.352;10.912;2023-08-07T06:44:03;99330.97;;;13.89;92.49
82222;BME280;71818;52.352;10.912;2023-08-07T06:46:29;99335.03;;;13.67;91.89
82222;BME280;71818;52.352;10.912;2023-08-07T06:48:54;99332.28;;;13.51;91.72
82222;BME280;71818;52.352;10.912;2023-08-07T06:51:19;99343.88;;;13.41;91.38
82222;BME280;71818;52.352;10.912;2023-08-07T06:53:45;99336.94;;;13.31;91.48
82222;BME280;71818;52.352;10.912;2023-08-07T06:56:10;99342.06;;;13.24;91.40
82222;BME280;71818;52.352;10.912;2023-08-07T06:58:35;99350.38;;;13.21;91.61
82222;BME280;71818;52.352;10.912;2023-08-07T07:01:01;99348.28;;;13.15;90.96
82222;BME280;71818;52.352;10.912;2023-08-07T07:03:26;99352.56;;;13.08;90.81
82222;BME280;71818;52.352;10.912;2023-08-07T07:05:51;99362.88;;;13.21;90.71
82222;BME280;71818;52.352;10.912;2023-08-07T07:08:17;99356.59;;;13.12;90.74
82222;BME280;71818;52.352;10.912;2023-08-07T07:10:42;99359.25;;;13.12;90.41
82222;BME280;71818;52.352;10.912;2023-08-07T07:13:07;99368.47;;;13.18;90.79
82222;BME280;71818;52.352;10.912;2023-08-07T07:15:34;99370.88;;;13.21;90.84
82222;BME280;71818;52.352;10.912;2023-08-07T07:18:01;99370.00;;;13.38;90.72
82222;BME280;71818;52.352;10.912;2023-08-07T07:20:26;99369.53;;;13.42;89.92
82222;BME280;71818;52.352;10.912;2023-08-07T07:22:52;99375.78;;;13.51;89.86
82222;BME280;71818;52.352;10.912;2023-08-07T07:25:17;99369.13;;;13.55;89.80
82222;BME280;71818;52.352;10.912;2023-08-07T07:27:43;99379.88;;;13.63;90.26
82222;BME280;71818;52.352;10.912;2023-08-07T07:30:09;99378.06;;;13.72;90.06
82222;BME280;71818;52.352;10.912;2023-08-07T07:32:34;99383.25;;;13.73;89.63
82222;BME280;71818;52.352;10.912;2023-08-07T07:35:00;99381.22;;;13.67;89.61
82222;BME280;71818;52.352;10.912;2023-08-07T07:37:25;99387.06;;;13.71;89.82
82222;BME280;71818;52.352;10.912;2023-08-07T07:39:50;99395.28;;;13.77;89.81
82222;BME280;71818;52.352;10.912;2023-08-07T07:42:16;99396.66;;;13.82;89.92
82222;BME280;71818;52.352;10.912;2023-08-07T07:44:41;99392.00;;;13.84;90.05
82222;BME280;71818;52.352;10.912;2023-08-07T07:47:07;99388.69;;;13.90;89.88
82222;BME280;71818;52.352;10.912;2023-08-07T07:49:33;99382.84;;;14.12;89.54
82222;BME280;71818;52.352;10.912;2023-08-07T07:51:58;99387.41;;;14.28;88.81
82222;BME280;71818;52.352;10.912;2023-08-07T07:54:24;99390.31;;;14.43;88.16
82222;BME280;71818;52.352;10.912;2023-08-07T07:56:49;99382.91;;;14.62;87.68
82222;BME280;71818;52.352;10.912;2023-08-07T07:59:14;99394.59;;;14.61;87.40
82222;BME280;71818;52.352;10.912;2023-08-07T08:01:40;99395.97;;;14.74;87.20
82222;BME280;71818;52.352;10.912;2023-08-07T08:04:06;99400.34;;;14.91;86.52
82222;BME280;71818;52.352;10.912;2023-08-07T08:06:32;99398.38;;;15.42;85.70
82222;BME280;71818;52.352;10.912;2023-08-07T08:08:57;99400.91;;;15.60;84.69
82222;BME280;71818;52.352;10.912;2023-08-07T08:11:24;99405.94;;;15.71;84.64
82222;BME280;71818;52.352;10.912;2023-08-07T08:13:51;99397.91;;;15.54;83.48
82222;BME280;71818;52.352;10.912;2023-08-07T08:16:16;99400.75;;;15.37;83.92
82222;BME280;71818;52.352;10.912;2023-08-07T08:18:42;99409.94;;;15.42;84.12
82222;BME280;71818;52.352;10.912;2023-08-07T08:21:07;99395.38;;;15.20;84.41
82222;BME280;71818;52.352;10.912;2023-08-07T08:23:32;99407.41;;;15.24;85.14
82222;BME280;71818;52.352;10.912;2023-08-07T08:25:58;99402.41;;;15.30;85.46
82222;BME280;71818;52.352;10.912;2023-08-07T08:28:23;99411.41;;;15.12;84.36
82222;BME280;71818;52.352;10.912;2023-08-07T08:30:48;99405.84;;;14.98;83.65
82222;BME280;71818;52.352;10.912;2023-08-07T08:33:14;99424.59;;;15.14;84.50
82222;BME280;71818;52.352;10.912;2023-08-07T08:35:39;99416.78;;;15.20;84.59
82222;BME280;71818;52.352;10.912;2023-08-07T08:38:06;99424.59;;;15.14;84.91
82222;BME280;71818;52.352;10.912;2023-08-07T08:40:31;99428.94;;;15.07;84.65
82222;BME280;71818;52.352;10.912;2023-08-07T08:43:00;99431.47;;;15.08;83.91
82222;BME280;71818;52.352;10.912;2023-08-07T08:45:27;99429.94;;;15.06;83.65
82222;BME280;71818;52.352;10.912;2023-08-07T08:47:55;99423.97;;;15.28;83.86
82222;BME280;71818;52.352;10.912;2023-08-07T08:50:24;99426.16;;;15.57;81.50
82222;BME280;71818;52.352;10.912;2023-08-07T08:52:51;99426.81;;;15.92;81.48
82222;BME280;71818;52.352;10.912;2023-08-07T08:55:16;99411.69;;;16.23;80.31
82222;BME280;71818;52.352;10.912;2023-08-07T08:57:43;99428.75;;;16.22;79.51
82222;BME280;71818;52.352;10.912;2023-08-07T09:00:09;99424.81;;;16.10;79.98
82222;BME280;71818;52.352;10.912;2023-08-07T09:02:47;99428.47;;;15.93;80.19
82222;BME280;71818;52.352;10.912;2023-08-07T09:05:18;99419.97;;;15.89;79.97
82222;BME280;71818;52.352;10.912;2023-08-07T09:07:45;99423.31;;;15.59;80.59
82222;BME280;71818;52.352;10.912;2023-08-07T09:10:12;99427.81;;;15.91;80.05
82222;BME280;71818;52.352;10.912;2023-08-07T09:12:40;99423.16;;;16.56;78.45
82222;BME280;71818;52.352;10.912;2023-08-07T09:15:07;99410.09;;;16.92;77.52
82222;BME280;71818;52.352;10.912;2023-08-07T09:17:40;99410.78;;;17.17;75.38
82222;BME280;71818;52.352;10.912;2023-08-07T09:20:10;99414.94;;;17.43;74.34
82222;BME280;71818;52.352;10.912;2023-08-07T09:22:38;99408.56;;;17.44;73.74
82222;BME280;71818;52.352;10.912;2023-08-07T09:25:03;99414.69;;;17.75;74.19
82222;BME280;71818;52.352;10.912;2023-08-07T09:27:30;99414.81;;;17.82;73.99
82222;BME280;71818;52.352;10.912;2023-08-07T09:29:55;99415.22;;;17.94;73.99
82222;BME280;71818;52.352;10.912;2023-08-07T09:32:22;99416.88;;;17.95;73.33
82222;BME280;71818;52.352;10.912;2023-08-07T09:34:49;99419.41;;;18.40;71.12
82222;BME280;71818;52.352;10.912;2023-08-07T09:37:15;99418.91;;;18.51;70.38
82222;BME280;71818;52.352;10.912;2023-08-07T09:39:40;99429.78;;;17.76;71.20
82222;BME280;71818;52.352;10.912;2023-08-07T09:42:16;99434.81;;;17.33;71.65
82222;BME280;71818;52.352;10.912;2023-08-07T09:44:42;99453.88;;;16.85;74.08
82222;BME280;71818;52.352;10.912;2023-08-07T09:47:13;99455.63;;;16.69;77.60
82222;BME280;71818;52.352;10.912;2023-08-07T09:49:42;99454.06;;;16.20;77.34
82222;BME280;71818;52.352;10.912;2023-08-07T09:52:08;99460.97;;;15.81;77.24
82222;BME280;71818;52.352;10.912;2023-08-07T09:54:34;99461.66;;;15.67;77.20
82222;BME280;71818;52.352;10.912;2023-08-07T09:57:01;99457.75;;;15.53;76.69
82222;BME280;71818;52.352;10.912;2023-08-07T09:59:27;99456.28;;;15.59;75.93
82222;BME280;71818;52.352;10.912;2023-08-07T10:01:56;99459.47;;;15.79;76.85
82222;BME280;71818;52.352;10.912;2023-08-07T10:04:22;99460.47;;;15.94;76.97
82222;BME280;71818;52.352;10.912;2023-08-07T10:06:48;99468.66;;;15.76;77.06
82222;BME280;71818;52.352;10.912;2023-08-07T10:09:13;99459.47;;;15.79;77.89
82222;BME280;71818;52.352;10.912;2023-08-07T10:11:39;99455.63;;;15.81;77.23
82222;BME280;71818;52.352;10.912;2023-08-07T10:14:12;99457.47;;;15.73;77.21
82222;BME280;71818;52.352;10.912;2023-08-07T10:16:39;99459.31;;;15.80;77.89
82222;BME280;71818;52.352;10.912;2023-08-07T10:19:06;99463.28;;;16.17;76.29
82222;BME280;71818;52.352;10.912;2023-08-07T10:21:34;99460.66;;;16.56;75.29
82222;BME280;71818;52.352;10.912;2023-08-07T10:24:03;99470.19;;;16.59;73.52
82222;BME280;71818;52.352;10.912;2023-08-07T10:26:30;99456.28;;;17.33;72.16
82222;BME280;71818;52.352;10.912;2023-08-07T10:28:58;99452.75;;;18.16;70.67
82222;BME280;71818;52.352;10.912;2023-08-07T10:31:26;99454.53;;;18.24;68.55
82222;BME280;71818;52.352;10.912;2023-08-07T10:33:51;99452.88;;;17.62;71.09
82222;BME280;71818;52.352;10.912;2023-08-07T10:36:18;99458.47;;;17.30;71.82
82222;BME280;71818;52.352;10.912;2023-08-07T10:38:44;99452.78;;;17.79;70.22
82222;BME280;71818;52.352;10.912;2023-08-07T10:41:12;99457.16;;;17.95;69.00
82222;BME280;71818;52.352;10.912;2023-08-07T10:43:39;99451.22;;;17.84;69.68
82222;BME280;71818;52.352;10.912;2023-08-07T10:46:25;99446.03;;;18.65;70.47
82222;BME280;71818;52.352;10.912;2023-08-07T10:48:55;99448.44;;;19.10;68.51
82222;BME280;71818;52.352;10.912;2023-08-07T10:51:28;99440.25;;;18.53;68.39
82222;BME280;71818;52.352;10.912;2023-08-07T10:53:55;99440.19;;;17.79;69.42
82222;BME280;71818;52.352;10.912;2023-08-07T10:56:34;99448.94;;;18.11;68.52
82222;BME280;71818;52.352;10.912;2023-08-07T10:59:10;99455.44;;;18.16;68.62
82222;BME280;71818;52.352;10.912;2023-08-07T11:04:10;99447.84;;;17.59;68.83
82222;BME280;71818;52.352;10.912;2023-08-07T11:06:36;99456.13;;;17.81;68.83
82222;BME280;71818;52.352;10.912;2023-08-07T11:09:04;99436.75;;;18.23;68.21
82222;BME280;71818;52.352;10.912;2023-08-07T11:11:46;99448.03;;;18.18;67.96
82222;BME280;71818;52.352;10.912;2023-08-07T11:14:14;99452.28;;;17.75;68.83
82222;BME280;71818;52.352;10.912;2023-08-07T11:16:40;99445.94;;;17.91;68.46
82222;BME280;71818;52.352;10.912;2023-08-07T11:19:06;99424.88;;;18.32;66.15
82222;BME280;71818;52.352;10.912;2023-08-07T11:21:32;99443.59;;;18.55;64.01
82222;BME280;71818;52.352;10.912;2023-08-07T11:23:58;99455.53;;;18.52;65.13
82222;BME280;71818;52.352;10.912;2023-08-07T11:26:23;99453.94;;;17.99;63.17
82222;BME280;71818;52.352;10.912;2023-08-07T11:28:51;99443.72;;;17.80;65.49
82222;BME280;71818;52.352;10.912;2023-08-07T11:31:21;99454.34;;;18.26;66.22
82222;BME280;71818;52.352;10.912;2023-08-07T11:33:49;99456.75;;;17.37;66.53
82222;BME280;71818;52.352;10.912;2023-08-07T11:36:15;99470.97;;;17.15;68.54
82222;BME280;71818;52.352;10.912;2023-08-07T11:38:41;99476.66;;;16.89;69.18
82222;BME280;71818;52.352;10.912;2023-08-07T11:41:14;99506.28;;;16.32;70.71
82222;BME280;71818;52.352;10.912;2023-08-07T11:43:40;99527.06;;;15.81;74.72
82222;BME280;71818;52.352;10.912;2023-08-07T11:46:07;99531.94;;;14.85;79.79
82222;BME280;71818;52.352;10.912;2023-08-07T11:48:35;99537.69;;;14.20;82.30
82222;BME280;71818;52.352;10.912;2023-08-07T11:51:02;99549.13;;;14.30;83.85
82222;BME280;71818;52.352;10.912;2023-08-07T11:53:30;99537.88;;;14.19;83.09
82222;BME280;71818;52.352;10.912;2023-08-07T11:56:05;99544.28;;;14.26;80.38
82222;BME280;71818;52.352;10.912;2023-08-07T11:58:35;99522.94;;;14.08;78.65
82222;BME280;71818;52.352;10.912;2023-08-07T12:01:06;99522.75;;;14.27;77.92
82222;BME280;71818;52.352;10.912;2023-08-07T12:03:36;99519.44;;;14.33;76.93
82222;BME280;71818;52.352;10.912;2023-08-07T12:06:06;99526.25;;;14.54;76.83
82222;BME280;71818;52.352;10.912;2023-08-07T12:08:33;99508.75;;;15.52;74.83
82222;BME280;71818;52.352;10.912;2023-08-07T12:11:04;99521.22;;;16.10;72.97
82222;BME280;71818;52.352;10.912;2023-08-07T12:13:30;99511.25;;;16.51;69.56
82222;BME280;71818;52.352;10.912;2023-08-07T12:15:57;99515.94;;;16.57;68.45
82222;BME280;71818;52.352;10.912;2023-08-07T12:18:24;99513.75;;;17.08;67.71
82222;BME280;71818;52.352;10.912;2023-08-07T12:20:52;99513.09;;;17.06;67.91
82222;BME280;71818;52.352;10.912;2023-08-07T12:23:20;99505.91;;;16.98;67.45
82222;BME280;71818;52.352;10.912;2023-08-07T12:25:46;99503.97;;;17.23;64.81
82222;BME280;71818;52.352;10.912;2023-08-07T12:28:11;99509.78;;;16.96;65.02
82222;BME280;71818;52.352;10.912;2023-08-07T12:30:37;99512.94;;;16.99;64.67
82222;BME280;71818;52.352;10.912;2023-08-07T12:33:04;99521.94;;;17.46;64.22
82222;BME280;71818;52.352;10.912;2023-08-07T12:35:33;99521.25;;;17.21;64.95
82222;BME280;71818;52.352;10.912;2023-08-07T12:37:59;99519.09;;;17.47;65.90
82222;BME280;71818;52.352;10.912;2023-08-07T12:40:24;99522.50;;;17.02;65.84
82222;BME280;71818;52.352;10.912;2023-08-07T12:42:50;99524.88;;;16.97;67.45
82222;BME280;71818;52.352;10.912;2023-08-07T12:45:16;99541.22;;;16.71;68.20
82222;BME280;71818;52.352;10.912;2023-08-07T12:47:45;99536.41;;;17.06;67.43
82222;BME280;71818;52.352;10.912;2023-08-07T12:50:11;99534.78;;;17.27;67.50